Flight Track Log - Related Links

Times and Time Zones

All times are in EDT time to prevent confusion due to time zone crossing. See the UAL4180 flight status page for this flight to view local times or setup timezone preferences in your user account.

Time Position Orientation Groundspeed Altitude Reporting Facility
EDT Latitude Longitude Course Direction KTS MPH feet Rate Location/Type
Mon 08:13:54 AM 27.7603 -97.4950 41° Northeast 144 166 500  Level Houston Center
Mon 08:14:31 AM 27.7408 -97.4714 133° Southeast 157 181 1,900 2,127 Climbing Houston Center
Mon 08:15:13 AM 27.7381 -97.4331 95° East 203 234 3,300 2,000 Climbing Houston Center
Mon 08:15:31 AM 27.7675 -97.4253 13° North 228 262 3,900 1,574 Climbing Houston Center
Mon 08:16:14 AM 27.8056 -97.4094 20° North 240 276 4,900 1,886 Climbing Houston Center
Mon 08:17:00 AM 27.9471 -97.3923 35° Northeast  Level FlightAware Approximate
Mon 08:17:16 AM 27.8794 -97.3853 16° North 260 299 7,200  Level Houston Center
Mon 08:18:00 AM 27.9971 -97.3523 35° Northeast  Level FlightAware Approximate
Mon 08:18:17 AM 27.9525 -97.3597 17° North 268 308 9,300  Level Houston Center
Mon 08:19:00 AM 28.0432 -97.3068 41° Northeast  Level FlightAware Approximate
Mon 08:19:19 AM 28.0289 -97.3275 20° North 279 321 10,800  Level Houston Center
Mon 08:20:20 AM 28.1200 -97.2469 38° Northeast 334 384 11,800 934 Climbing Houston Center
Mon 08:21:21 AM 28.2042 -97.1853 33° Northeast 356 410 12,700 1,024 Climbing Houston Center
Mon 08:22:23 AM 28.2922 -97.1186 34° Northeast 374 430 13,900 1,122 Climbing Houston Center
Mon 08:23:24 AM 28.3814 -97.0514 34° Northeast 382 440 15,000 1,073 Climbing Houston Center
Mon 08:24:26 AM 28.4717 -96.9847 33° Northeast 386 444 16,100 976 Climbing Houston Center
Mon 08:25:27 AM 28.5758 -96.9533 15° North 388 447 17,000 439 Climbing Houston Center
Mon 08:26:29 AM 28.6825 -96.9197 15° North 393 452 17,000  Level Houston Center
Mon 08:27:30 AM 28.7900 -96.8861 15° North 397 457 17,000  Level Houston Center
Mon 08:28:32 AM 28.9206 -96.8450 15° North 402 463 17,000  Level Houston Center
Mon 08:29:33 AM 29.0239 -96.8111 16° North 398 458 17,000  Level Houston Center
Mon 08:30:35 AM 29.1233 -96.7781 16° North 385 443 17,000  Level Houston Center
Mon 08:31:36 AM 29.2208 -96.7458 16° North 374 430 17,000  Level Houston Center
Mon 08:32:38 AM 29.3186 -96.7069 19° North 385 443 17,000  Level Houston Center
Mon 08:33:13 AM 29.3692 -96.6392 49° Northeast 394 453 17,000  Level Houston Center
Mon 08:33:39 AM 29.3806 -96.6083 67° East 392 451 17,000 -545 Level Houston Center
Mon 08:34:41 AM 29.4350 -96.4628 67° East 414 476 16,200 -1,707 Descending Houston Center
Mon 08:35:42 AM 29.4817 -96.3425 66° East 414 476 13,500 -2,571 Descending Houston Center
Mon 08:35:58 AM 29.4928 -96.3092 69° East 389 448 12,900 -1,355 Descending Houston Center
Mon 08:36:44 AM 29.5194 -96.2378 67° East 363 418 12,100 -500 Descending Houston Center
Mon 08:37:46 AM 29.5594 -96.1372 65° Northeast 349 402 12,000 -537 Descending Houston Center
Mon 08:38:47 AM 29.6089 -96.0392 60° Northeast 355 409 11,000 -976 Descending Houston Center
Mon 08:39:49 AM 29.6625 -95.9367 59° Northeast 351 404 10,000 -741 Descending Houston Center
Mon 08:40:08 AM 29.6800 -95.9017 60° Northeast 334 384 10,000  Level Houston Center
Mon 08:40:50 AM 29.7081 -95.8439 61° Northeast 335 386 10,000  Level Houston Center
Mon 08:41:52 AM 29.7558 -95.7497 60° Northeast 340 391 10,000 -532 Level Houston Center
Mon 08:42:54 AM 29.7969 -95.6664 60° Northeast 301 346 8,900 -1,535 Descending Houston Center
Mon 08:44:01 AM 29.8475 -95.5669 60° Northeast 284 327 6,700 -1,415 Descending Houston Center
Mon 08:44:57 AM 29.8753 -95.5100 61° Northeast 279 321 6,000 -359 Descending Houston Center
Mon 08:45:58 AM 29.8961 -95.4100 76° East 275 316 6,000  Level Houston Center
Mon 08:47:00 AM 29.8961 -95.3211 90° East 276 318 6,000  Level Houston Center
Mon 08:48:02 AM 29.8967 -95.2325 90° East 275 316 6,000 -387 Level Houston Center
Mon 08:49:04 AM 29.8978 -95.1444 89° East 274 315 5,200 -1,140 Descending Houston Center
Mon 08:50:03 AM 29.8975 -95.0597 90° East 259 298 3,700 -1,238 Descending Houston Center
Mon 08:51:10 AM 29.9011 -94.9628 88° East 264 304 2,600 -810 Descending Houston Center
Mon 08:52:09 AM 29.9572 -94.9558 North 278 320 2,000 -300 Descending Houston Center
Mon 08:53:10 AM 29.9792 -95.0292 289° West 252 290 2,000  Level Houston Center
Mon 08:54:12 AM 29.9786 -95.1225 270° West 246 283 2,000  Level Houston Center

Login

Don't have an account? Register now (free) for customized features, flight alerts, and more!